National Weather Service United States Department of Commerce

Turning Stormy in the Northwest

An active fall storm pattern developing in the Pacific Northwest this week will bring areas of heavy rain and high elevation snow. Northern California will benefit from rainfall this week that will aid firefighters given the recent large wildfires. Read More >

                                       ZTL Airspace Summary / KAVL TAF                    For ATC Planning Purposes Only
ZTL Airspace Summary:
High pressure will continue to dominate the airspace. Expect VFR conditions under clear skies over most of ZTL with patchy fog in the TN/GA/AL mountain valleys. Surface winds will be northeast to east at 5-8kts and frequently calm/variable through the morning. Flight Hazards: None expected.

Updated: 10/18/2017 6:00 AM
 

Asheville Terminal Aerodrome Forecast:
 
FTUS80 KAVL 181218 AAA
KAVL 181216Z 1812/1912 00000KT 3/4SM BR VV002
      TEMPO 1812/1813 1/4SM FG VV001
     FM181330 00000KT 4SM BR SCT003
     FM181430 13004KT P6SM SCT200
     FM190700 00000KT 3SM BR FEW200
     FM191000 00000KT 1SM BR SCT002

 

AVL METAR:  
SAUS70 KAVL 181600
METAR KAVL 181554Z 18004KT 10SM 14/06 A3040 RMK AO2 SLP290 T01390061
     $

Go to KAVL TAF TDA
Go to KAVL TAF TDA

 
AVL TRACON HAZARDS
AVL TRACON: SFC-10000
AVG CIG BASE WHERE REPORTED BLW 10000FT: NONE REPORTED
LOWEST REPORTED CIG: NONE REPORTED
LOWEST REPORTED FLIGHT CAT: VFR
METARS:
KAVL 181554Z 18004KT 10SM 14/06 A3040 RMK AO2 SLP290 T01390061 $

AVL TRACON HAZARD

Forecast Surface Map Loop / Collaborative Convective Forecast Product / Vertical Wind Profile
Weather Map

 

AIRMETs & SIGMETS/ Southeast Radar loop / Satellite Image (click on image to enlarge)
Weather Map Southeast Radar Loop

satellite